createdAt,value
2023-02-03T00:02:03.676Z,7.05
2023-02-03T00:04:30.647Z,6.82
2023-02-03T00:06:57.538Z,8.00
2023-02-03T00:09:24.337Z,7.28
2023-02-03T00:11:51.377Z,6.82
2023-02-03T00:14:18.171Z,7.20
2023-02-03T00:16:45.176Z,7.25
2023-02-03T00:19:12.091Z,7.10
2023-02-03T00:21:39.029Z,6.35
2023-02-03T00:24:06.060Z,6.97
2023-02-03T00:26:32.912Z,6.95
2023-02-03T00:29:00.719Z,6.15
2023-02-03T00:31:27.868Z,7.97
2023-02-03T00:33:57.354Z,5.70
2023-02-03T00:36:25.806Z,6.20
2023-02-03T00:38:54.191Z,6.90
2023-02-03T00:41:22.066Z,6.65
2023-02-03T00:43:50.010Z,5.93
2023-02-03T00:46:16.940Z,5.85
2023-02-03T00:48:43.911Z,6.13
2023-02-03T00:51:10.667Z,5.47
2023-02-03T00:53:37.486Z,5.03
2023-02-03T00:56:04.675Z,5.80
2023-02-03T00:58:31.442Z,5.18
2023-02-03T01:00:58.301Z,5.60
2023-02-03T01:03:25.512Z,5.30
2023-02-03T01:05:52.498Z,5.20
2023-02-03T01:08:19.814Z,5.20
2023-02-03T01:10:46.667Z,5.32
2023-02-03T01:13:13.485Z,5.50
2023-02-03T01:15:48.036Z,5.85
2023-02-03T01:18:15.571Z,4.75
2023-02-03T01:20:44.437Z,5.85
2023-02-03T01:23:11.275Z,5.03
2023-02-03T01:25:38.056Z,4.40
2023-02-03T01:28:06.112Z,5.05
2023-02-03T01:30:33.515Z,4.18
2023-02-03T01:33:00.611Z,5.00
2023-02-03T01:35:27.624Z,4.72
2023-02-03T01:37:54.432Z,5.28
2023-02-03T01:40:21.579Z,4.65
2023-02-03T01:42:48.287Z,4.47
2023-02-03T01:45:15.095Z,4.43
2023-02-03T01:47:59.608Z,3.88
2023-02-03T01:50:37.143Z,4.05
2023-02-03T01:53:12.135Z,3.47
2023-02-03T01:55:44.537Z,4.53
2023-02-03T01:58:20.241Z,4.68
2023-02-03T02:00:49.897Z,4.88
2023-02-03T02:03:20.357Z,4.07
2023-02-03T02:06:20.219Z,3.92
2023-02-03T02:08:51.296Z,5.47
2023-02-03T02:11:21.301Z,6.40
2023-02-03T02:13:52.781Z,4.10
2023-02-03T02:16:53.704Z,3.88
2023-02-03T02:20:25.336Z,4.30
2023-02-03T02:23:34.822Z,3.70
2023-02-03T02:26:23.955Z,4.03
2023-02-03T02:29:08.442Z,3.50
2023-02-03T02:31:54.223Z,3.33
2023-02-03T02:35:10.516Z,3.20
2023-02-03T02:37:52.837Z,5.47
2023-02-03T02:40:33.446Z,3.47
2023-02-03T02:43:23.360Z,2.88
2023-02-03T02:46:02.735Z,3.47
2023-02-03T02:48:43.324Z,3.38
2023-02-03T02:51:14.673Z,3.67
2023-02-03T02:53:49.619Z,3.40
2023-02-03T02:56:18.122Z,3.27
2023-02-03T02:58:49.758Z,4.20
2023-02-03T03:01:18.044Z,4.45
2023-02-03T03:03:45.361Z,3.25
2023-02-03T03:06:36.707Z,3.47
2023-02-03T03:09:12.985Z,4.53
2023-02-03T03:11:47.295Z,4.20
2023-02-03T03:14:18.157Z,5.28
2023-02-03T03:16:54.914Z,3.60
2023-02-03T03:19:26.636Z,3.50
2023-02-03T03:22:04.813Z,3.72
2023-02-03T03:24:39.872Z,3.28
2023-02-03T03:27:14.219Z,3.50
2023-02-03T03:29:58.291Z,3.42
2023-02-03T03:32:28.083Z,3.88
2023-02-03T03:34:56.131Z,4.53
2023-02-03T03:37:58.449Z,4.28
2023-02-03T03:40:38.154Z,3.90
2023-02-03T03:43:19.650Z,3.95
2023-02-03T03:45:58.306Z,3.97
2023-02-03T03:48:40.128Z,4.25
2023-02-03T03:51:15.194Z,4.93
2023-02-03T03:53:45.874Z,6.00
2023-02-03T03:56:19.617Z,5.05
2023-02-03T03:58:49.777Z,4.40
2023-02-03T04:01:17.772Z,4.18
2023-02-03T04:03:50.281Z,4.80
2023-02-03T04:06:17.128Z,4.65
2023-02-03T04:08:43.954Z,4.10
2023-02-03T04:11:10.741Z,3.75
2023-02-03T04:13:37.537Z,3.70
2023-02-03T04:16:04.499Z,4.13
2023-02-03T04:18:31.564Z,3.63
2023-02-03T04:20:58.328Z,4.93
2023-02-03T04:23:25.076Z,3.80
2023-02-03T04:25:51.860Z,3.50
2023-02-03T04:28:18.776Z,3.35
2023-02-03T04:30:45.585Z,3.60
2023-02-03T04:33:12.479Z,3.58
2023-02-03T04:35:39.188Z,3.53
2023-02-03T04:38:05.909Z,3.17
2023-02-03T04:40:34.917Z,3.65
2023-02-03T04:43:07.772Z,3.13
2023-02-03T04:45:34.538Z,3.90
2023-02-03T04:48:01.305Z,3.65
2023-02-03T04:50:28.316Z,4.30
2023-02-03T04:52:55.380Z,3.42
2023-02-03T04:55:22.156Z,3.25
2023-02-03T04:57:48.881Z,3.35
2023-02-03T05:00:15.931Z,3.13
2023-02-03T05:02:42.715Z,2.55
2023-02-03T05:05:09.581Z,2.63
2023-02-03T05:07:36.390Z,2.78
2023-02-03T05:10:03.226Z,2.20
2023-02-03T05:12:30.222Z,2.65
2023-02-03T05:14:56.990Z,2.60
2023-02-03T05:17:23.863Z,2.45
2023-02-03T05:19:50.682Z,2.85
2023-02-03T05:22:17.496Z,3.05
2023-02-03T05:24:44.349Z,2.38
2023-02-03T05:27:11.112Z,2.55
2023-02-03T05:29:37.795Z,1.80
2023-02-03T05:32:04.856Z,2.75
2023-02-03T05:34:31.563Z,2.75
2023-02-03T05:36:58.648Z,1.90
2023-02-03T05:39:25.273Z,2.28
2023-02-03T05:41:57.186Z,2.40
2023-02-03T05:44:28.632Z,1.90
2023-02-03T05:46:59.637Z,2.10
2023-02-03T05:49:26.545Z,2.85
2023-02-03T05:51:55.051Z,2.50
2023-02-03T05:54:22.439Z,3.38
2023-02-03T05:56:49.153Z,2.30
2023-02-03T05:59:15.795Z,1.55
2023-02-03T06:01:42.394Z,2.25
2023-02-03T06:04:10.157Z,2.35
2023-02-03T06:06:37.123Z,1.88
2023-02-03T06:09:07.316Z,1.73
2023-02-03T06:11:35.877Z,1.85
2023-02-03T06:14:04.087Z,2.45
2023-02-03T06:16:31.038Z,1.75
2023-02-03T06:19:01.945Z,1.70
2023-02-03T06:21:28.885Z,1.45
2023-02-03T06:23:56.590Z,1.35
2023-02-03T06:26:23.880Z,2.05
2023-02-03T06:28:50.544Z,2.10
2023-02-03T06:31:17.332Z,1.95
2023-02-03T06:33:44.297Z,1.17
2023-02-03T06:36:11.167Z,1.45
2023-02-03T06:38:37.767Z,1.77
2023-02-03T06:41:04.963Z,1.45
2023-02-03T06:43:31.719Z,1.25
2023-02-03T06:45:58.553Z,2.13
2023-02-03T06:48:25.229Z,2.10
2023-02-03T06:50:52.015Z,0.90
2023-02-03T06:53:18.650Z,2.13
2023-02-03T06:55:45.329Z,1.75
2023-02-03T06:58:12.197Z,1.98
2023-02-03T07:00:38.921Z,1.30
2023-02-03T07:03:05.713Z,1.55
2023-02-03T07:05:32.507Z,1.55
2023-02-03T07:07:59.507Z,1.30
2023-02-03T07:10:26.476Z,1.77
2023-02-03T07:12:53.398Z,1.27
2023-02-03T07:15:20.029Z,1.17
2023-02-03T07:17:54.278Z,2.20
2023-02-03T07:20:23.516Z,1.27
2023-02-03T07:22:58.339Z,1.48
2023-02-03T07:25:25.994Z,1.60
2023-02-03T07:27:52.920Z,1.60
2023-02-03T07:30:19.962Z,2.35
2023-02-03T07:32:49.584Z,1.35
2023-02-03T07:35:16.482Z,2.10
2023-02-03T07:37:43.729Z,1.42
2023-02-03T07:40:12.681Z,1.75
2023-02-03T07:42:44.204Z,1.92
2023-02-03T07:45:13.363Z,1.77
2023-02-03T07:47:41.148Z,1.90
2023-02-03T07:50:09.058Z,1.90
2023-02-03T07:52:36.626Z,2.70
2023-02-03T07:55:04.404Z,1.60
2023-02-03T07:57:31.129Z,1.98
2023-02-03T07:59:57.784Z,1.63
2023-02-03T08:02:24.461Z,1.48
2023-02-03T08:04:51.135Z,1.90
2023-02-03T08:07:17.813Z,1.63
2023-02-03T08:09:44.646Z,1.52
2023-02-03T08:12:11.336Z,1.60
2023-02-03T08:14:37.967Z,1.92
2023-02-03T08:17:04.589Z,1.95
2023-02-03T08:19:31.211Z,2.60
2023-02-03T08:21:59.156Z,1.75
2023-02-03T08:24:25.752Z,1.90
2023-02-03T08:26:53.080Z,1.33
2023-02-03T08:29:20.395Z,1.23
2023-02-03T08:31:47.091Z,1.83
2023-02-03T08:34:13.802Z,2.15
2023-02-03T08:36:40.461Z,1.80
2023-02-03T08:39:07.582Z,2.40
2023-02-03T08:41:34.339Z,2.00
2023-02-03T08:44:01.596Z,1.95
2023-02-03T08:46:28.556Z,2.45
2023-02-03T08:48:56.517Z,2.47
2023-02-03T08:51:24.536Z,2.55
2023-02-03T08:53:51.800Z,2.53
2023-02-03T08:56:18.577Z,2.20
2023-02-03T08:58:45.247Z,2.90
2023-02-03T09:01:15.735Z,2.88
2023-02-03T09:03:43.098Z,2.78
2023-02-03T09:06:13.020Z,2.90
2023-02-03T09:08:39.831Z,2.50
2023-02-03T09:11:15.898Z,3.45
2023-02-03T09:13:45.943Z,3.20
2023-02-03T09:16:17.154Z,3.38
2023-02-03T09:18:44.766Z,3.25
2023-02-03T09:21:20.846Z,3.33
2023-02-03T09:24:04.185Z,3.80
2023-02-03T09:26:31.279Z,3.78
2023-02-03T09:28:57.916Z,3.80
2023-02-03T09:31:24.787Z,4.15
2023-02-03T09:33:51.466Z,3.30
2023-02-03T09:36:18.125Z,4.25
2023-02-03T09:38:44.804Z,4.20
2023-02-03T09:41:14.192Z,4.63
2023-02-03T09:44:00.901Z,4.22
2023-02-03T09:46:34.197Z,4.70
2023-02-03T09:49:39.754Z,4.65
2023-02-03T09:52:20.163Z,4.80
2023-02-03T09:55:05.948Z,5.25
2023-02-03T09:57:43.698Z,6.13
2023-02-03T10:00:30.733Z,5.78
2023-02-03T10:03:25.268Z,6.05
2023-02-03T10:06:30.654Z,5.85
2023-02-03T10:09:41.741Z,5.80
2023-02-03T10:12:59.355Z,5.70
2023-02-03T10:18:00.223Z,6.80
2023-02-03T10:20:50.258Z,7.07
2023-02-03T10:23:23.373Z,6.47
2023-02-03T10:25:57.720Z,6.72
2023-02-03T10:28:32.901Z,6.63
2023-02-03T10:31:08.652Z,7.97
2023-02-03T10:36:22.046Z,7.30
2023-02-03T10:39:11.082Z,6.72
2023-02-03T10:41:37.858Z,7.85
2023-02-03T10:44:08.649Z,7.55
2023-02-03T10:46:39.608Z,8.07
2023-02-03T10:49:06.365Z,7.20
2023-02-03T10:51:42.731Z,7.45
2023-02-03T10:54:34.838Z,7.82
2023-02-03T10:57:14.707Z,7.65
2023-02-03T10:59:47.695Z,8.18
2023-02-03T11:02:43.814Z,7.13
2023-02-03T11:05:16.018Z,7.45
2023-02-03T11:07:43.803Z,7.28
2023-02-03T11:10:29.353Z,7.57
2023-02-03T11:13:23.773Z,6.15
2023-02-03T11:16:07.799Z,6.63
2023-02-03T11:19:13.557Z,7.05
2023-02-03T11:21:43.323Z,8.05
2023-02-03T11:24:30.711Z,6.75
2023-02-03T11:27:09.583Z,8.00
2023-02-03T11:29:46.535Z,6.97
2023-02-03T11:32:41.464Z,6.97
2023-02-03T11:35:24.482Z,8.02
2023-02-03T11:38:00.670Z,7.72
2023-02-03T11:40:38.403Z,7.63
2023-02-03T11:43:32.014Z,8.30
2023-02-03T11:46:08.244Z,6.65
2023-02-03T11:49:05.947Z,7.60
2023-02-03T11:51:56.158Z,7.80
2023-02-03T11:55:04.189Z,7.70
2023-02-03T11:58:00.152Z,7.82
2023-02-03T12:00:57.439Z,6.70
2023-02-03T12:03:37.119Z,7.30
2023-02-03T12:06:18.653Z,6.70
2023-02-03T12:09:07.255Z,6.28
2023-02-03T12:12:05.621Z,6.40
2023-02-03T12:14:49.453Z,5.82
2023-02-03T12:17:45.409Z,6.07
2023-02-03T12:20:46.024Z,5.47
2023-02-03T12:23:40.319Z,5.45
2023-02-03T12:26:20.117Z,5.05
2023-02-03T12:29:11.937Z,6.88
2023-02-03T12:32:08.500Z,4.90
2023-02-03T12:34:50.671Z,6.07
2023-02-03T12:37:50.058Z,3.95
2023-02-03T12:40:49.342Z,4.82
2023-02-03T12:43:41.980Z,4.50
2023-02-03T12:46:47.493Z,4.25
2023-02-03T12:49:29.298Z,3.40
2023-02-03T12:52:17.160Z,3.80
2023-02-03T12:55:16.166Z,2.90
2023-02-03T12:58:07.619Z,3.55
2023-02-03T13:01:00.876Z,2.80
2023-02-03T13:03:45.767Z,2.40
2023-02-03T13:06:33.755Z,2.65
2023-02-03T13:09:51.404Z,3.10
2023-02-03T13:15:22.795Z,3.08
2023-02-03T13:18:15.505Z,3.22
2023-02-03T13:20:42.506Z,2.78
2023-02-03T13:23:15.987Z,2.90
2023-02-03T13:25:54.654Z,4.32
2023-02-03T13:29:11.527Z,3.22
2023-02-03T13:32:11.982Z,3.25
2023-02-03T13:34:47.565Z,2.75
2023-02-03T13:37:43.412Z,4.53
2023-02-03T13:40:45.633Z,3.90
2023-02-03T13:43:45.022Z,2.78
2023-02-03T13:46:32.733Z,3.13
2023-02-03T13:49:04.165Z,3.38
2023-02-03T13:51:35.194Z,3.03
2023-02-03T13:54:23.188Z,4.18
2023-02-03T13:57:03.063Z,3.80
2023-02-03T13:59:44.999Z,2.95
2023-02-03T14:02:24.391Z,3.17
2023-02-03T14:04:55.449Z,2.95
2023-02-03T14:07:40.317Z,2.80
2023-02-03T14:10:15.903Z,3.08
2023-02-03T14:12:51.439Z,2.80
2023-02-03T14:15:18.122Z,2.80
2023-02-03T14:17:44.848Z,2.80
2023-02-03T14:20:27.108Z,2.83
2023-02-03T14:22:57.814Z,2.90
2023-02-03T14:25:27.252Z,2.95
2023-02-03T14:28:10.796Z,3.40
2023-02-03T14:31:13.010Z,3.10
2023-02-03T14:33:49.147Z,2.75
2023-02-03T14:36:27.828Z,4.30
2023-02-03T14:38:56.392Z,3.30
2023-02-03T14:41:38.072Z,2.58
2023-02-03T14:44:17.264Z,3.42
2023-02-03T14:47:12.356Z,3.92
2023-02-03T14:49:59.851Z,3.05
2023-02-03T14:52:59.083Z,4.20
2023-02-03T14:55:49.408Z,3.03
2023-02-03T14:58:34.170Z,2.78
2023-02-03T15:01:05.022Z,3.42
2023-02-03T15:03:32.084Z,4.22
2023-02-03T15:06:05.607Z,3.30
2023-02-03T15:08:40.925Z,3.15
2023-02-03T15:11:27.568Z,3.83
2023-02-03T15:13:57.295Z,3.15
2023-02-03T15:16:26.101Z,3.85
2023-02-03T15:19:00.163Z,3.92
2023-02-03T15:21:27.018Z,3.95
2023-02-03T15:23:54.620Z,4.65
2023-02-03T15:26:25.471Z,3.97
2023-02-03T15:29:01.067Z,3.10
2023-02-03T15:31:40.044Z,2.92
2023-02-03T15:34:22.655Z,2.60
2023-02-03T15:36:54.134Z,2.08
2023-02-03T15:39:41.076Z,3.08
2023-02-03T15:42:16.256Z,3.05
2023-02-03T15:44:53.596Z,3.33
2023-02-03T15:47:38.355Z,2.78
2023-02-03T15:50:30.910Z,3.80
2023-02-03T15:53:07.692Z,2.90
2023-02-03T15:55:43.517Z,2.00
2023-02-03T16:00:55.938Z,2.70
2023-02-03T16:03:39.082Z,2.67
2023-02-03T16:06:19.117Z,3.05
2023-02-03T16:08:48.179Z,3.95
2023-02-03T16:11:31.260Z,3.10
2023-02-03T16:14:07.578Z,2.92
2023-02-03T16:17:04.893Z,2.38
2023-02-03T16:19:38.031Z,3.33
2023-02-03T16:22:04.948Z,3.00
2023-02-03T16:24:43.080Z,3.92
2023-02-03T16:27:33.711Z,4.15
2023-02-03T16:30:25.341Z,3.00
2023-02-03T16:33:28.540Z,3.78
2023-02-03T16:36:18.385Z,4.30
2023-02-03T16:39:08.163Z,3.65
2023-02-03T16:41:55.801Z,3.53
2023-02-03T16:44:41.546Z,3.78
2023-02-03T16:47:43.354Z,2.97
2023-02-03T16:50:43.041Z,3.65
2023-02-03T16:53:23.243Z,3.90
2023-02-03T16:55:52.433Z,4.10
2023-02-03T16:58:19.470Z,3.58
2023-02-03T17:00:50.623Z,3.00
2023-02-03T17:03:21.614Z,4.72
2023-02-03T17:05:49.934Z,4.68
2023-02-03T17:08:20.809Z,4.28
2023-02-03T17:10:48.673Z,2.95
2023-02-03T17:13:17.624Z,3.65
2023-02-03T17:15:48.119Z,3.17
2023-02-03T17:18:15.679Z,3.50
2023-02-03T17:20:44.333Z,3.13
2023-02-03T17:23:11.477Z,3.80
2023-02-03T17:25:40.456Z,3.65
2023-02-03T17:28:10.686Z,3.33
2023-02-03T17:30:37.437Z,3.88
2023-02-03T17:33:12.145Z,3.47
2023-02-03T17:35:45.123Z,4.07
2023-02-03T17:38:14.542Z,3.70
2023-02-03T17:54:37.515Z,3.40
2023-02-03T17:57:04.529Z,3.55
2023-02-03T17:59:31.298Z,4.50
2023-02-03T18:01:57.986Z,3.00
2023-02-03T18:04:24.669Z,4.50
2023-02-03T18:06:53.360Z,3.60
2023-02-03T18:09:20.686Z,4.18
2023-02-03T18:11:47.511Z,3.95
2023-02-03T18:14:15.594Z,3.25
2023-02-03T18:16:42.952Z,3.53
2023-02-03T18:19:14.534Z,2.47
2023-02-03T18:21:42.817Z,3.90
2023-02-03T18:24:12.812Z,4.32
2023-02-03T18:26:51.261Z,3.85
2023-02-03T18:29:18.852Z,3.67
2023-02-03T18:31:46.741Z,3.08
2023-02-03T18:34:14.933Z,3.75
2023-02-03T18:36:41.572Z,3.50
2023-02-03T18:39:11.209Z,3.53
2023-02-03T18:41:39.514Z,5.57
2023-02-03T18:44:06.243Z,3.20
2023-02-03T18:46:33.427Z,2.83
2023-02-03T18:49:00.467Z,3.17
2023-02-03T18:51:27.653Z,3.13
2023-02-03T18:53:59.361Z,3.45
2023-02-03T18:56:35.136Z,6.57
2023-02-03T19:01:32.880Z,3.45
2023-02-03T19:04:03.175Z,3.40
2023-02-03T19:06:32.068Z,3.58
2023-02-03T19:08:59.569Z,3.65
2023-02-03T19:11:26.434Z,3.95
2023-02-03T19:13:53.528Z,3.17
2023-02-03T19:16:20.348Z,3.05
2023-02-03T19:18:47.635Z,3.45
2023-02-03T19:21:14.783Z,4.28
2023-02-03T19:23:42.650Z,3.83
2023-02-03T19:26:10.311Z,3.05
2023-02-03T19:28:37.858Z,3.92
2023-02-03T19:31:13.448Z,5.05
2023-02-03T19:33:40.343Z,3.72
2023-02-03T19:36:08.680Z,3.70
2023-02-03T19:38:35.756Z,3.65
2023-02-03T19:41:02.987Z,4.07
2023-02-03T19:43:31.128Z,4.03
2023-02-03T19:45:58.063Z,4.03
2023-02-03T19:48:25.002Z,5.90
2023-02-03T19:50:51.639Z,4.18
2023-02-03T19:53:18.643Z,5.60
2023-02-03T19:55:46.530Z,3.28
2023-02-03T19:58:14.047Z,4.40
2023-02-03T20:00:42.410Z,4.82
2023-02-03T20:03:10.357Z,4.82
2023-02-03T20:05:37.940Z,5.18
2023-02-03T20:08:04.951Z,4.72
2023-02-03T20:10:32.935Z,4.70
2023-02-03T20:13:00.292Z,4.75
2023-02-03T20:15:27.516Z,6.93
2023-02-03T20:17:54.333Z,3.85
2023-02-03T20:20:21.482Z,4.53
2023-02-03T20:22:48.853Z,6.15
2023-02-03T20:25:16.406Z,4.90
2023-02-03T20:27:43.271Z,5.25
2023-02-03T20:30:11.860Z,5.28
2023-02-03T20:32:39.451Z,4.22
2023-02-03T20:35:06.952Z,4.72
2023-02-03T20:37:36.002Z,4.35
2023-02-03T20:40:14.770Z,4.22
2023-02-03T20:42:41.416Z,4.32
2023-02-03T20:45:18.702Z,4.95
2023-02-03T20:47:45.794Z,3.75
2023-02-03T20:50:31.600Z,4.28
2023-02-03T20:53:12.948Z,5.57
2023-02-03T20:55:39.648Z,5.15
2023-02-03T20:58:19.364Z,4.80
2023-02-03T21:00:47.444Z,6.28
2023-02-03T21:03:34.711Z,3.85
2023-02-03T21:06:01.942Z,3.97
2023-02-03T21:08:28.899Z,4.93
2023-02-03T21:10:55.527Z,4.22
2023-02-03T21:13:34.032Z,3.70
2023-02-03T21:16:04.987Z,3.95
2023-02-03T21:18:50.322Z,3.85
2023-02-03T21:21:40.142Z,3.25
2023-02-03T21:24:25.119Z,4.10
2023-02-03T21:26:52.910Z,3.63
2023-02-03T21:29:31.448Z,3.92
2023-02-03T21:31:58.516Z,3.85
2023-02-03T21:34:35.006Z,3.53
2023-02-03T21:37:31.586Z,3.22
2023-02-03T21:39:58.285Z,4.05
2023-02-03T21:42:43.222Z,5.85
2023-02-03T21:45:36.522Z,3.15
2023-02-03T21:48:34.290Z,3.95
2023-02-03T21:51:04.503Z,6.32
2023-02-03T21:53:35.917Z,3.90
2023-02-03T21:56:18.372Z,3.85
2023-02-03T21:58:47.499Z,4.82
2023-02-03T22:01:18.264Z,3.60
2023-02-03T22:03:54.014Z,2.88
2023-02-03T22:06:23.807Z,3.55
2023-02-03T22:08:55.041Z,2.88
2023-02-03T22:11:23.993Z,4.72
2023-02-03T22:13:51.006Z,3.72
2023-02-03T22:16:18.698Z,4.05
2023-02-03T22:18:47.579Z,3.38
2023-02-03T22:21:15.706Z,4.55
2023-02-03T22:23:43.150Z,3.63
2023-02-03T22:26:11.561Z,3.33
2023-02-03T22:28:39.435Z,4.30
2023-02-03T22:31:07.592Z,5.88
2023-02-03T22:33:35.702Z,3.75
2023-02-03T22:36:03.400Z,5.93
2023-02-03T22:38:30.611Z,4.22
2023-02-03T22:40:57.364Z,3.70
2023-02-03T22:43:24.487Z,3.80
2023-02-03T22:45:51.844Z,3.17
2023-02-03T22:48:18.850Z,2.80
2023-02-03T22:50:45.554Z,2.95
2023-02-03T22:53:12.980Z,3.72
2023-02-03T22:55:39.793Z,3.55
2023-02-03T22:58:07.664Z,3.95
2023-02-03T23:00:34.702Z,5.05
2023-02-03T23:03:01.670Z,3.40
2023-02-03T23:05:28.413Z,4.15
2023-02-03T23:07:55.443Z,4.00
2023-02-03T23:10:25.938Z,3.35
2023-02-03T23:12:52.754Z,3.72
2023-02-03T23:15:19.495Z,3.72
2023-02-03T23:17:46.354Z,4.80
2023-02-03T23:20:15.755Z,3.97
2023-02-03T23:22:43.939Z,3.45
2023-02-03T23:25:12.258Z,3.72
2023-02-03T23:27:39.127Z,5.00
2023-02-03T23:30:07.648Z,3.13
2023-02-03T23:32:34.440Z,4.07
2023-02-03T23:35:20.816Z,2.90
2023-02-03T23:37:47.799Z,4.20
2023-02-03T23:40:14.969Z,3.70
2023-02-03T23:42:41.876Z,4.93
2023-02-03T23:45:11.830Z,4.05
2023-02-03T23:47:40.810Z,4.15
2023-02-03T23:50:14.241Z,2.80
2023-02-03T23:52:41.169Z,4.30
2023-02-03T23:55:16.901Z,5.63
2023-02-03T23:57:44.577Z,3.25
